Aeroporto :
LOGIN :

Iscrizione | Disclaimer

   EN    FR    IT 

 










Sommario :    VFR   VFR Marginale   IFR   IFR Intensivo   IFR Molto Intensivo
Visibilità : 
Base nubi : 
>= 8 km
>= 3000ft
5 / 8 km
1000 / 3000 ft
1500m / 5 km
500 / 1000 ft
800 / 1500m
200 / 500 ft
< 800m
< 200 ft
Simboli :   Temporali  Nebbia  Neve Forte  Precipitazioni Forti  Vento > 20 kt
SIGMETs :   Varie  Temporali  Ghiacco  Turbolenza  Onda orograficha  Ceneri Vulcaniche







- Altitudine del aeroporto : 184 ft
- Codice IATA : BRU


EBBR - Bruxelles

ULTIMO METAR :
  • 190220Z 24009KT 9999 SCT014 07/05 Q1017 NOSIG

METARs OBSOLETI :
  • 190150Z 25007KT 9999 BKN014 08/05 Q1017 NOSIG
  • 190120Z 26007KT 9999 FEW046 08/05 Q1017 NOSIG
  • 190050Z 26007KT 9999 -RA SCT043 08/05 Q1017 NOSIG
  • 190020Z 27009KT 9999 FEW031 BKN046 08/05 Q1017 NOSIG
  • 182350Z 27008KT 9999 FEW029 BKN044 08/05 Q1017 NOSIG

TAF TAF EBBR
Valido dal 19 a 00 ore il 20 a 06 ore UTC


182310Z 1900/2006 25008KT 9999 SCT035
PROB30
TEMPO 1900/1902 4500 -RA -RADZ SCT008 BKN012
PROB30
TEMPO 1902/1906 BKN007
Nessun NOTAM noto per questo aeroporto.



MetMap, La meteo Aeronautica in un colpo d'occhio ! - Copyright ORBIFLY Dicembre 2007 - Disclaimer

ORBIFLY MET'MAP TEAM :

Programmazione e sviluppo : Alexandra Zaïnal
Concezione e sviluppo : Baudouin d'Aumeries
Co-Programmazione e sviluppo : Marc-Olivier Méhu
Supporto tecnico e logistico : Manuel Goepfert
Aiuto per la traduzione : Arnaldo La Scala

Contatto : metmap@orbifly.com




FONTI E CREDITI :

   NOAA